createdAt,value
2022-11-18T00:03:17.412Z,94.68
2022-11-18T00:13:38.262Z,95.13
2022-11-18T00:23:42.478Z,95.24
2022-11-18T00:33:45.206Z,96.10
2022-11-18T00:43:49.319Z,94.35
2022-11-18T00:53:52.003Z,95.30
2022-11-18T01:03:56.119Z,94.40
2022-11-18T01:13:58.801Z,94.54
2022-11-18T01:24:03.224Z,95.04
2022-11-18T01:34:05.829Z,94.37
2022-11-18T01:44:41.815Z,95.34
2022-11-18T01:54:52.212Z,94.93
2022-11-18T02:04:57.709Z,93.59
2022-11-18T02:15:02.838Z,94.45
2022-11-18T02:25:13.804Z,94.95
2022-11-18T02:35:23.193Z,94.50
2022-11-18T02:45:29.110Z,94.23
2022-11-18T02:55:37.604Z,93.73
2022-11-18T03:05:47.872Z,93.88
2022-11-18T03:16:00.204Z,93.69
2022-11-18T03:26:06.093Z,93.69
2022-11-18T03:36:13.955Z,93.53
2022-11-18T03:46:20.258Z,93.32
2022-11-18T03:56:27.493Z,93.57
2022-11-18T04:06:36.147Z,94.63
2022-11-18T04:16:42.146Z,93.89
2022-11-18T04:26:44.814Z,94.08
2022-11-18T04:36:48.847Z,94.12
2022-11-18T04:46:51.663Z,93.32
2022-11-18T04:56:56.733Z,94.85
2022-11-18T05:07:00.561Z,93.88
2022-11-18T05:17:06.795Z,94.65
2022-11-18T05:27:09.804Z,93.79
2022-11-18T05:37:13.967Z,94.81
2022-11-18T05:47:16.656Z,95.12
2022-11-18T05:57:20.683Z,94.78
2022-11-18T06:07:28.771Z,94.87
2022-11-18T06:17:37.099Z,94.80
2022-11-18T06:27:39.759Z,94.89
2022-11-18T06:37:43.782Z,94.40
2022-11-18T06:47:47.361Z,94.50
2022-11-18T06:57:51.547Z,94.24
2022-11-18T07:07:54.353Z,94.56
2022-11-18T07:17:58.456Z,94.81
2022-11-18T07:28:01.148Z,94.65
2022-11-18T07:38:05.252Z,94.29
2022-11-18T07:48:08.016Z,94.63
2022-11-18T07:58:12.079Z,95.27
2022-11-18T08:08:14.816Z,94.74
2022-11-18T08:18:18.917Z,94.58
2022-11-18T08:28:22.453Z,94.55
2022-11-18T08:38:26.607Z,94.77
2022-11-18T08:48:29.299Z,94.20
2022-11-18T08:58:33.366Z,94.72
2022-11-18T09:08:36.397Z,94.27
2022-11-18T09:18:40.582Z,93.75
2022-11-18T09:28:44.239Z,93.43
2022-11-18T09:38:51.801Z,92.93
2022-11-18T09:49:16.870Z,91.59
2022-11-18T09:59:24.182Z,93.15
2022-11-18T10:09:34.350Z,92.57
2022-11-18T10:19:43.136Z,92.30
2022-11-18T10:29:47.079Z,92.16
2022-11-18T10:39:53.544Z,92.61
2022-11-18T10:49:58.304Z,91.85
2022-11-18T11:00:02.419Z,92.70
2022-11-18T11:10:23.250Z,91.89
2022-11-18T11:20:27.751Z,92.39
2022-11-18T11:30:38.793Z,92.29
2022-11-18T11:40:55.256Z,93.75
2022-11-18T11:51:05.006Z,92.88
2022-11-18T12:01:19.579Z,92.75
2022-11-18T12:11:30.987Z,93.15
2022-11-18T12:22:03.914Z,92.27
2022-11-18T12:32:26.881Z,91.67
2022-11-18T12:43:02.881Z,93.59
2022-11-18T12:53:05.615Z,92.63
2022-11-18T13:03:09.686Z,92.65
2022-11-18T13:13:23.851Z,92.98
2022-11-18T13:23:50.177Z,92.91
2022-11-18T13:33:53.543Z,91.08
2022-11-18T13:43:57.565Z,91.76
2022-11-18T13:54:00.374Z,91.82
2022-11-18T14:04:06.290Z,91.09
2022-11-18T14:14:10.948Z,91.60
2022-11-18T14:24:16.438Z,91.61
2022-11-18T14:34:24.653Z,90.45
2022-11-18T14:44:30.485Z,88.58
2022-11-18T14:54:33.708Z,90.44
2022-11-18T15:04:38.146Z,90.47
2022-11-18T15:14:40.815Z,91.27
2022-11-18T15:24:44.802Z,89.79
2022-11-18T15:34:48.502Z,89.92
2022-11-18T15:44:52.510Z,90.09
2022-11-18T15:54:55.434Z,87.59
2022-11-18T16:04:59.844Z,89.50
2022-11-18T16:15:20.167Z,87.25
2022-11-18T16:25:24.178Z,88.41
2022-11-18T16:35:27.893Z,88.25
2022-11-18T16:45:32.006Z,87.52
2022-11-18T16:55:34.674Z,87.77
2022-11-18T17:05:38.637Z,89.06
2022-11-18T17:15:41.230Z,86.95
2022-11-18T17:25:45.162Z,87.28
2022-11-18T17:35:47.837Z,87.19
2022-11-18T17:45:53.091Z,86.46
2022-11-18T17:55:58.375Z,86.20
2022-11-18T18:06:08.693Z,80.99
2022-11-18T18:16:11.303Z,82.57
2022-11-18T18:26:15.552Z,80.97
2022-11-18T18:36:19.790Z,79.26
2022-11-18T18:46:32.212Z,80.34
2022-11-18T18:56:35.133Z,78.43
2022-11-18T19:17:10.153Z,74.70
2022-11-18T19:27:15.504Z,76.73
2022-11-18T19:37:18.142Z,74.86
2022-11-18T19:47:22.652Z,77.26
2022-11-18T19:57:25.352Z,73.24
2022-11-18T20:07:29.481Z,73.97
2022-11-18T20:17:32.231Z,69.91
2022-11-18T20:27:36.289Z,68.81
2022-11-18T20:37:39.064Z,67.91
2022-11-18T20:47:43.047Z,70.03
2022-11-18T20:57:45.704Z,71.49
2022-11-18T21:07:50.484Z,68.87
2022-11-18T21:17:53.089Z,71.45
2022-11-18T21:27:57.090Z,71.57
2022-11-18T21:38:00.069Z,72.22
2022-11-18T21:48:04.291Z,71.92
2022-11-18T21:58:06.908Z,70.91
2022-11-18T22:08:11.049Z,70.71
2022-11-18T22:18:13.774Z,69.53
2022-11-18T22:28:17.699Z,73.64
2022-11-18T22:38:20.329Z,73.11
2022-11-18T22:48:24.270Z,74.79
2022-11-18T22:58:26.858Z,76.01
2022-11-18T23:08:33.806Z,75.63
2022-11-18T23:18:36.454Z,76.15
2022-11-18T23:28:41.428Z,77.66
2022-11-18T23:38:44.629Z,77.11
2022-11-18T23:48:48.657Z,77.29
2022-11-18T23:58:52.827Z,77.92
